sensor_id;sensor_type;location;lat;lon;timestamp;temperature;humidity
16076;DHT22;8142;48.242;11.644;2024-02-26T00:00:50;4.50;99.90
16076;DHT22;8142;48.242;11.644;2024-02-26T00:03:16;4.60;99.90
16076;DHT22;8142;48.242;11.644;2024-02-26T00:05:42;4.50;99.90
16076;DHT22;8142;48.242;11.644;2024-02-26T00:08:08;4.50;99.90
16076;DHT22;8142;48.242;11.644;2024-02-26T00:10:34;4.50;99.90
16076;DHT22;8142;48.242;11.644;2024-02-26T00:13:00;4.40;99.90
16076;DHT22;8142;48.242;11.644;2024-02-26T00:15:26;4.30;99.90
16076;DHT22;8142;48.242;11.644;2024-02-26T00:17:53;4.30;99.90
16076;DHT22;8142;48.242;11.644;2024-02-26T00:20:19;4.30;99.90
16076;DHT22;8142;48.242;11.644;2024-02-26T00:22:45;4.30;99.90
16076;DHT22;8142;48.242;11.644;2024-02-26T00:25:11;4.30;99.90
16076;DHT22;8142;48.242;11.644;2024-02-26T00:27:38;4.30;99.90
16076;DHT22;8142;48.242;11.644;2024-02-26T00:30:06;4.20;99.90
16076;DHT22;8142;48.242;11.644;2024-02-26T00:32:32;4.20;99.90
16076;DHT22;8142;48.242;11.644;2024-02-26T00:34:58;4.30;99.90
16076;DHT22;8142;48.242;11.644;2024-02-26T00:37:24;4.20;99.90
16076;DHT22;8142;48.242;11.644;2024-02-26T00:39:50;4.20;99.90
16076;DHT22;8142;48.242;11.644;2024-02-26T00:42:16;4.20;99.90
16076;DHT22;8142;48.242;11.644;2024-02-26T00:44:42;4.20;99.90
16076;DHT22;8142;48.242;11.644;2024-02-26T00:47:08;4.10;99.90
16076;DHT22;8142;48.242;11.644;2024-02-26T00:49:34;4.10;99.90
16076;DHT22;8142;48.242;11.644;2024-02-26T00:52:00;4.10;99.90
16076;DHT22;8142;48.242;11.644;2024-02-26T00:54:25;4.10;99.90
16076;DHT22;8142;48.242;11.644;2024-02-26T00:56:51;4.10;99.90
16076;DHT22;8142;48.242;11.644;2024-02-26T00:59:17;4.10;99.90
16076;DHT22;8142;48.242;11.644;2024-02-26T01:01:43;4.00;99.90
16076;DHT22;8142;48.242;11.644;2024-02-26T01:04:09;4.00;99.90
16076;DHT22;8142;48.242;11.644;2024-02-26T01:06:35;4.00;99.90
16076;DHT22;8142;48.242;11.644;2024-02-26T01:09:02;4.00;99.90
16076;DHT22;8142;48.242;11.644;2024-02-26T01:11:28;4.00;99.90
16076;DHT22;8142;48.242;11.644;2024-02-26T01:13:54;4.10;99.90
16076;DHT22;8142;48.242;11.644;2024-02-26T01:16:23;4.00;99.90
16076;DHT22;8142;48.242;11.644;2024-02-26T01:18:49;4.00;99.90
16076;DHT22;8142;48.242;11.644;2024-02-26T01:21:15;4.00;99.90
16076;DHT22;8142;48.242;11.644;2024-02-26T01:23:41;3.90;99.90
16076;DHT22;8142;48.242;11.644;2024-02-26T01:26:08;4.00;99.90
16076;DHT22;8142;48.242;11.644;2024-02-26T01:28:34;3.90;99.90
16076;DHT22;8142;48.242;11.644;2024-02-26T01:31:00;3.90;99.90
16076;DHT22;8142;48.242;11.644;2024-02-26T01:33:26;3.90;99.90
16076;DHT22;8142;48.242;11.644;2024-02-26T01:35:52;3.90;99.90
16076;DHT22;8142;48.242;11.644;2024-02-26T01:38:18;3.90;99.90
16076;DHT22;8142;48.242;11.644;2024-02-26T01:40:44;3.80;99.90
16076;DHT22;8142;48.242;11.644;2024-02-26T01:43:10;3.90;99.90
16076;DHT22;8142;48.242;11.644;2024-02-26T01:45:36;3.90;99.90
16076;DHT22;8142;48.242;11.644;2024-02-26T01:48:02;3.90;99.90
16076;DHT22;8142;48.242;11.644;2024-02-26T01:50:28;3.90;99.90
16076;DHT22;8142;48.242;11.644;2024-02-26T01:52:55;3.90;99.90
16076;DHT22;8142;48.242;11.644;2024-02-26T01:55:24;3.80;99.90
16076;DHT22;8142;48.242;11.644;2024-02-26T01:57:50;3.80;99.90
16076;DHT22;8142;48.242;11.644;2024-02-26T02:00:18;3.80;99.90
16076;DHT22;8142;48.242;11.644;2024-02-26T02:02:45;3.80;99.90
16076;DHT22;8142;48.242;11.644;2024-02-26T02:05:15;3.70;99.90
16076;DHT22;8142;48.242;11.644;2024-02-26T02:07:43;3.80;99.90
16076;DHT22;8142;48.242;11.644;2024-02-26T02:10:09;3.70;99.90
16076;DHT22;8142;48.242;11.644;2024-02-26T02:12:35;3.70;99.90
16076;DHT22;8142;48.242;11.644;2024-02-26T02:15:04;3.70;99.90
16076;DHT22;8142;48.242;11.644;2024-02-26T02:17:31;3.70;99.90
16076;DHT22;8142;48.242;11.644;2024-02-26T02:19:57;3.70;99.90
16076;DHT22;8142;48.242;11.644;2024-02-26T02:22:23;3.70;99.90
16076;DHT22;8142;48.242;11.644;2024-02-26T02:24:51;3.70;99.90
16076;DHT22;8142;48.242;11.644;2024-02-26T02:27:17;3.80;99.90
16076;DHT22;8142;48.242;11.644;2024-02-26T02:29:43;3.70;99.90
16076;DHT22;8142;48.242;11.644;2024-02-26T02:32:09;3.70;99.90
16076;DHT22;8142;48.242;11.644;2024-02-26T02:34:36;3.70;99.90
16076;DHT22;8142;48.242;11.644;2024-02-26T02:37:01;3.70;99.90
16076;DHT22;8142;48.242;11.644;2024-02-26T02:39:27;3.70;99.90
16076;DHT22;8142;48.242;11.644;2024-02-26T02:41:53;3.70;99.90
16076;DHT22;8142;48.242;11.644;2024-02-26T02:44:19;3.70;99.90
16076;DHT22;8142;48.242;11.644;2024-02-26T02:46:45;3.70;99.90
16076;DHT22;8142;48.242;11.644;2024-02-26T02:49:11;3.70;99.90
16076;DHT22;8142;48.242;11.644;2024-02-26T02:51:37;3.70;99.90
16076;DHT22;8142;48.242;11.644;2024-02-26T02:54:03;3.70;99.90
16076;DHT22;8142;48.242;11.644;2024-02-26T02:56:29;3.70;99.90
16076;DHT22;8142;48.242;11.644;2024-02-26T02:58:55;3.70;99.90
16076;DHT22;8142;48.242;11.644;2024-02-26T03:01:21;3.70;99.90
16076;DHT22;8142;48.242;11.644;2024-02-26T03:03:47;3.70;99.90
16076;DHT22;8142;48.242;11.644;2024-02-26T03:06:12;3.70;99.90
16076;DHT22;8142;48.242;11.644;2024-02-26T03:08:38;3.70;99.90
16076;DHT22;8142;48.242;11.644;2024-02-26T03:11:05;3.70;99.90
16076;DHT22;8142;48.242;11.644;2024-02-26T03:13:32;3.70;99.90
16076;DHT22;8142;48.242;11.644;2024-02-26T03:16:04;3.70;99.90
16076;DHT22;8142;48.242;11.644;2024-02-26T03:18:30;3.70;99.90
16076;DHT22;8142;48.242;11.644;2024-02-26T03:20:56;3.70;99.90
16076;DHT22;8142;48.242;11.644;2024-02-26T03:23:22;3.70;99.90
16076;DHT22;8142;48.242;11.644;2024-02-26T03:25:48;3.70;99.90
16076;DHT22;8142;48.242;11.644;2024-02-26T03:28:14;3.70;99.90
16076;DHT22;8142;48.242;11.644;2024-02-26T03:30:40;3.70;99.90
16076;DHT22;8142;48.242;11.644;2024-02-26T03:33:06;3.60;99.90
16076;DHT22;8142;48.242;11.644;2024-02-26T03:35:32;3.50;99.90
16076;DHT22;8142;48.242;11.644;2024-02-26T03:37:57;3.30;99.90
16076;DHT22;8142;48.242;11.644;2024-02-26T03:40:23;3.10;99.90
16076;DHT22;8142;48.242;11.644;2024-02-26T03:42:50;2.80;99.90
16076;DHT22;8142;48.242;11.644;2024-02-26T03:45:18;2.60;99.90
16076;DHT22;8142;48.242;11.644;2024-02-26T03:47:44;2.30;99.90
16076;DHT22;8142;48.242;11.644;2024-02-26T03:50:10;2.00;99.90
16076;DHT22;8142;48.242;11.644;2024-02-26T03:52:36;1.90;99.90
16076;DHT22;8142;48.242;11.644;2024-02-26T03:55:02;1.70;99.90
16076;DHT22;8142;48.242;11.644;2024-02-26T03:57:28;1.60;99.90
16076;DHT22;8142;48.242;11.644;2024-02-26T03:59:54;1.50;99.90
16076;DHT22;8142;48.242;11.644;2024-02-26T04:02:20;1.40;99.90
16076;DHT22;8142;48.242;11.644;2024-02-26T04:04:46;1.30;99.90
16076;DHT22;8142;48.242;11.644;2024-02-26T04:07:13;1.20;99.90
16076;DHT22;8142;48.242;11.644;2024-02-26T04:09:39;1.20;99.90
16076;DHT22;8142;48.242;11.644;2024-02-26T04:12:05;1.00;99.90
16076;DHT22;8142;48.242;11.644;2024-02-26T04:14:31;1.00;99.90
16076;DHT22;8142;48.242;11.644;2024-02-26T04:16:57;1.20;99.90
16076;DHT22;8142;48.242;11.644;2024-02-26T04:19:22;1.00;99.90
16076;DHT22;8142;48.242;11.644;2024-02-26T04:21:48;1.00;99.90
16076;DHT22;8142;48.242;11.644;2024-02-26T04:24:15;1.00;99.90
16076;DHT22;8142;48.242;11.644;2024-02-26T04:26:41;0.90;99.90
16076;DHT22;8142;48.242;11.644;2024-02-26T04:29:07;0.90;99.90
16076;DHT22;8142;48.242;11.644;2024-02-26T04:31:33;1.00;99.90
16076;DHT22;8142;48.242;11.644;2024-02-26T04:33:59;1.00;99.90
16076;DHT22;8142;48.242;11.644;2024-02-26T04:36:25;1.10;99.90
16076;DHT22;8142;48.242;11.644;2024-02-26T04:38:54;1.10;99.90
16076;DHT22;8142;48.242;11.644;2024-02-26T04:41:21;1.10;99.90
16076;DHT22;8142;48.242;11.644;2024-02-26T04:43:47;1.20;99.90
16076;DHT22;8142;48.242;11.644;2024-02-26T04:46:13;1.20;99.90
16076;DHT22;8142;48.242;11.644;2024-02-26T04:48:39;1.20;99.90
16076;DHT22;8142;48.242;11.644;2024-02-26T04:51:07;1.20;99.90
16076;DHT22;8142;48.242;11.644;2024-02-26T04:53:33;1.20;99.90
16076;DHT22;8142;48.242;11.644;2024-02-26T04:55:59;1.20;99.90
16076;DHT22;8142;48.242;11.644;2024-02-26T04:58:25;1.20;99.90
16076;DHT22;8142;48.242;11.644;2024-02-26T05:00:51;1.20;99.90
16076;DHT22;8142;48.242;11.644;2024-02-26T05:03:17;1.20;99.90
16076;DHT22;8142;48.242;11.644;2024-02-26T05:05:43;1.20;99.90
16076;DHT22;8142;48.242;11.644;2024-02-26T05:08:09;1.20;99.90
16076;DHT22;8142;48.242;11.644;2024-02-26T05:10:36;1.30;99.90
16076;DHT22;8142;48.242;11.644;2024-02-26T05:13:05;1.40;99.90
16076;DHT22;8142;48.242;11.644;2024-02-26T05:15:31;1.50;99.90
16076;DHT22;8142;48.242;11.644;2024-02-26T05:17:58;1.60;99.90
16076;DHT22;8142;48.242;11.644;2024-02-26T05:20:23;1.80;99.90
16076;DHT22;8142;48.242;11.644;2024-02-26T05:22:49;1.90;99.90
16076;DHT22;8142;48.242;11.644;2024-02-26T05:25:16;2.00;99.90
16076;DHT22;8142;48.242;11.644;2024-02-26T05:27:43;2.10;99.90
16076;DHT22;8142;48.242;11.644;2024-02-26T05:30:10;2.20;99.90
16076;DHT22;8142;48.242;11.644;2024-02-26T05:32:36;2.30;99.90
16076;DHT22;8142;48.242;11.644;2024-02-26T05:35:03;2.50;99.90
16076;DHT22;8142;48.242;11.644;2024-02-26T05:37:30;2.50;99.90
16076;DHT22;8142;48.242;11.644;2024-02-26T05:39:56;2.50;99.90
16076;DHT22;8142;48.242;11.644;2024-02-26T05:42:22;2.70;99.90
16076;DHT22;8142;48.242;11.644;2024-02-26T05:44:48;2.80;99.90
16076;DHT22;8142;48.242;11.644;2024-02-26T05:47:14;2.80;99.90
16076;DHT22;8142;48.242;11.644;2024-02-26T05:49:40;2.90;99.90
16076;DHT22;8142;48.242;11.644;2024-02-26T05:52:06;3.00;99.90
16076;DHT22;8142;48.242;11.644;2024-02-26T05:54:32;3.00;99.90
16076;DHT22;8142;48.242;11.644;2024-02-26T05:56:58;3.10;99.90
16076;DHT22;8142;48.242;11.644;2024-02-26T05:59:24;3.10;99.90
16076;DHT22;8142;48.242;11.644;2024-02-26T06:01:50;3.10;99.90
16076;DHT22;8142;48.242;11.644;2024-02-26T06:04:16;3.10;99.90
16076;DHT22;8142;48.242;11.644;2024-02-26T06:06:44;3.10;99.90
16076;DHT22;8142;48.242;11.644;2024-02-26T06:09:11;3.20;99.90
16076;DHT22;8142;48.242;11.644;2024-02-26T06:11:38;3.20;99.90
16076;DHT22;8142;48.242;11.644;2024-02-26T06:14:04;3.20;99.90
16076;DHT22;8142;48.242;11.644;2024-02-26T06:16:29;3.00;99.90
16076;DHT22;8142;48.242;11.644;2024-02-26T06:18:55;3.10;99.90
16076;DHT22;8142;48.242;11.644;2024-02-26T06:21:22;3.00;99.90
16076;DHT22;8142;48.242;11.644;2024-02-26T06:23:48;2.80;99.90
16076;DHT22;8142;48.242;11.644;2024-02-26T06:26:15;2.70;99.90
16076;DHT22;8142;48.242;11.644;2024-02-26T06:28:40;2.50;99.90
16076;DHT22;8142;48.242;11.644;2024-02-26T06:31:06;2.40;99.90
16076;DHT22;8142;48.242;11.644;2024-02-26T06:33:32;2.40;99.90
16076;DHT22;8142;48.242;11.644;2024-02-26T06:35:59;2.30;99.90
16076;DHT22;8142;48.242;11.644;2024-02-26T06:38:25;2.20;99.90
16076;DHT22;8142;48.242;11.644;2024-02-26T06:40:51;2.20;99.90
16076;DHT22;8142;48.242;11.644;2024-02-26T06:43:16;2.10;99.90
16076;DHT22;8142;48.242;11.644;2024-02-26T06:45:42;2.10;99.90
16076;DHT22;8142;48.242;11.644;2024-02-26T06:48:08;2.10;99.90
16076;DHT22;8142;48.242;11.644;2024-02-26T06:50:34;2.10;99.90
16076;DHT22;8142;48.242;11.644;2024-02-26T06:53:00;2.10;99.90
16076;DHT22;8142;48.242;11.644;2024-02-26T06:55:26;2.10;99.90
16076;DHT22;8142;48.242;11.644;2024-02-26T06:57:52;2.00;99.90
16076;DHT22;8142;48.242;11.644;2024-02-26T07:00:18;2.00;99.90
16076;DHT22;8142;48.242;11.644;2024-02-26T07:02:44;2.10;99.90
16076;DHT22;8142;48.242;11.644;2024-02-26T07:05:10;2.10;99.90
16076;DHT22;8142;48.242;11.644;2024-02-26T07:07:36;2.10;99.90
16076;DHT22;8142;48.242;11.644;2024-02-26T07:10:02;2.10;99.90
16076;DHT22;8142;48.242;11.644;2024-02-26T07:12:30;2.20;99.90
16076;DHT22;8142;48.242;11.644;2024-02-26T07:14:56;2.20;99.90
16076;DHT22;8142;48.242;11.644;2024-02-26T07:17:22;2.20;99.90
16076;DHT22;8142;48.242;11.644;2024-02-26T07:19:48;2.30;99.90
16076;DHT22;8142;48.242;11.644;2024-02-26T07:22:14;2.40;99.90
16076;DHT22;8142;48.242;11.644;2024-02-26T07:24:40;2.30;99.90
16076;DHT22;8142;48.242;11.644;2024-02-26T07:27:06;2.40;99.90
16076;DHT22;8142;48.242;11.644;2024-02-26T07:29:32;2.40;99.90
16076;DHT22;8142;48.242;11.644;2024-02-26T07:31:59;2.50;99.90
16076;DHT22;8142;48.242;11.644;2024-02-26T07:34:25;2.50;99.90
16076;DHT22;8142;48.242;11.644;2024-02-26T07:36:57;2.50;99.90
16076;DHT22;8142;48.242;11.644;2024-02-26T07:39:23;2.60;99.90
16076;DHT22;8142;48.242;11.644;2024-02-26T07:41:49;2.60;99.90
16076;DHT22;8142;48.242;11.644;2024-02-26T07:44:18;2.60;99.90
16076;DHT22;8142;48.242;11.644;2024-02-26T07:46:44;2.60;99.90
16076;DHT22;8142;48.242;11.644;2024-02-26T07:49:10;2.60;99.90
16076;DHT22;8142;48.242;11.644;2024-02-26T07:51:36;2.70;99.90
16076;DHT22;8142;48.242;11.644;2024-02-26T07:54:02;2.90;99.90
16076;DHT22;8142;48.242;11.644;2024-02-26T07:56:28;3.00;99.90
16076;DHT22;8142;48.242;11.644;2024-02-26T07:58:54;3.10;99.90
16076;DHT22;8142;48.242;11.644;2024-02-26T08:01:20;3.30;99.90
16076;DHT22;8142;48.242;11.644;2024-02-26T08:03:45;3.50;99.90
16076;DHT22;8142;48.242;11.644;2024-02-26T08:06:11;3.60;99.90
16076;DHT22;8142;48.242;11.644;2024-02-26T08:08:37;3.80;99.90
16076;DHT22;8142;48.242;11.644;2024-02-26T08:11:03;3.90;99.90
16076;DHT22;8142;48.242;11.644;2024-02-26T08:13:29;4.10;99.90
16076;DHT22;8142;48.242;11.644;2024-02-26T08:15:56;4.20;99.90
16076;DHT22;8142;48.242;11.644;2024-02-26T08:18:23;4.30;99.90
16076;DHT22;8142;48.242;11.644;2024-02-26T08:20:49;4.40;99.90
16076;DHT22;8142;48.242;11.644;2024-02-26T08:23:15;4.50;99.90
16076;DHT22;8142;48.242;11.644;2024-02-26T08:25:41;4.60;99.90
16076;DHT22;8142;48.242;11.644;2024-02-26T08:28:07;4.60;99.90
16076;DHT22;8142;48.242;11.644;2024-02-26T08:30:33;4.70;99.90
16076;DHT22;8142;48.242;11.644;2024-02-26T08:33:00;4.70;99.90
16076;DHT22;8142;48.242;11.644;2024-02-26T08:35:26;4.80;99.90
16076;DHT22;8142;48.242;11.644;2024-02-26T08:37:55;4.80;99.90
16076;DHT22;8142;48.242;11.644;2024-02-26T08:40:22;4.90;99.90
16076;DHT22;8142;48.242;11.644;2024-02-26T08:42:48;4.90;99.90
16076;DHT22;8142;48.242;11.644;2024-02-26T08:45:14;5.00;99.90
16076;DHT22;8142;48.242;11.644;2024-02-26T08:47:40;5.10;99.90
16076;DHT22;8142;48.242;11.644;2024-02-26T08:50:06;5.10;99.90
16076;DHT22;8142;48.242;11.644;2024-02-26T08:52:32;5.20;99.90
16076;DHT22;8142;48.242;11.644;2024-02-26T08:54:59;5.20;99.90
16076;DHT22;8142;48.242;11.644;2024-02-26T08:57:25;5.30;99.90
16076;DHT22;8142;48.242;11.644;2024-02-26T08:59:53;5.30;99.90
16076;DHT22;8142;48.242;11.644;2024-02-26T09:02:20;5.40;99.90
16076;DHT22;8142;48.242;11.644;2024-02-26T09:04:47;5.50;99.90
16076;DHT22;8142;48.242;11.644;2024-02-26T09:07:13;5.70;99.90
16076;DHT22;8142;48.242;11.644;2024-02-26T09:09:39;5.70;99.90
16076;DHT22;8142;48.242;11.644;2024-02-26T09:12:05;5.80;99.90
16076;DHT22;8142;48.242;11.644;2024-02-26T09:14:31;5.80;99.90
16076;DHT22;8142;48.242;11.644;2024-02-26T09:16:57;5.90;99.90
16076;DHT22;8142;48.242;11.644;2024-02-26T09:19:24;6.00;99.90
16076;DHT22;8142;48.242;11.644;2024-02-26T09:21:51;6.00;99.90
16076;DHT22;8142;48.242;11.644;2024-02-26T09:24:18;6.10;99.90
16076;DHT22;8142;48.242;11.644;2024-02-26T09:26:45;6.10;99.90
16076;DHT22;8142;48.242;11.644;2024-02-26T09:29:11;6.20;99.90
16076;DHT22;8142;48.242;11.644;2024-02-26T09:31:37;6.20;99.90
16076;DHT22;8142;48.242;11.644;2024-02-26T09:34:05;6.30;99.90
16076;DHT22;8142;48.242;11.644;2024-02-26T09:36:31;6.30;99.90
16076;DHT22;8142;48.242;11.644;2024-02-26T09:38:57;6.40;99.90
16076;DHT22;8142;48.242;11.644;2024-02-26T09:41:23;6.50;99.90
16076;DHT22;8142;48.242;11.644;2024-02-26T09:43:52;6.50;99.90
16076;DHT22;8142;48.242;11.644;2024-02-26T09:46:22;6.60;99.90
16076;DHT22;8142;48.242;11.644;2024-02-26T09:48:50;6.70;99.90
16076;DHT22;8142;48.242;11.644;2024-02-26T09:51:17;6.70;99.90
16076;DHT22;8142;48.242;11.644;2024-02-26T09:53:44;6.80;99.90
16076;DHT22;8142;48.242;11.644;2024-02-26T09:56:12;6.90;99.90
16076;DHT22;8142;48.242;11.644;2024-02-26T09:58:39;6.90;99.90
16076;DHT22;8142;48.242;11.644;2024-02-26T10:01:11;7.00;99.90
16076;DHT22;8142;48.242;11.644;2024-02-26T10:03:41;7.10;99.90
16076;DHT22;8142;48.242;11.644;2024-02-26T10:06:08;7.20;99.90
16076;DHT22;8142;48.242;11.644;2024-02-26T10:08:35;7.30;99.90
16076;DHT22;8142;48.242;11.644;2024-02-26T10:11:04;7.30;99.90
16076;DHT22;8142;48.242;11.644;2024-02-26T10:13:32;7.40;99.90
16076;DHT22;8142;48.242;11.644;2024-02-26T10:15:58;7.40;99.90
16076;DHT22;8142;48.242;11.644;2024-02-26T10:18:24;7.40;99.90
16076;DHT22;8142;48.242;11.644;2024-02-26T10:21:02;7.50;99.90
16076;DHT22;8142;48.242;11.644;2024-02-26T10:23:29;7.60;99.90
16076;DHT22;8142;48.242;11.644;2024-02-26T10:25:55;7.60;99.90
16076;DHT22;8142;48.242;11.644;2024-02-26T10:28:22;7.70;99.90
16076;DHT22;8142;48.242;11.644;2024-02-26T10:30:48;7.70;99.90
16076;DHT22;8142;48.242;11.644;2024-02-26T10:33:15;7.80;99.90
16076;DHT22;8142;48.242;11.644;2024-02-26T10:35:46;7.80;99.90
16076;DHT22;8142;48.242;11.644;2024-02-26T10:38:13;7.90;99.90
16076;DHT22;8142;48.242;11.644;2024-02-26T10:40:42;7.90;99.90
16076;DHT22;8142;48.242;11.644;2024-02-26T10:43:08;8.00;99.90
16076;DHT22;8142;48.242;11.644;2024-02-26T10:45:34;8.00;99.90
16076;DHT22;8142;48.242;11.644;2024-02-26T10:48:00;8.00;99.90
16076;DHT22;8142;48.242;11.644;2024-02-26T10:50:26;8.10;99.90
16076;DHT22;8142;48.242;11.644;2024-02-26T10:52:54;8.20;99.90
16076;DHT22;8142;48.242;11.644;2024-02-26T10:55:22;8.20;99.90
16076;DHT22;8142;48.242;11.644;2024-02-26T10:57:52;8.30;99.90
16076;DHT22;8142;48.242;11.644;2024-02-26T11:00:22;8.30;99.90
16076;DHT22;8142;48.242;11.644;2024-02-26T11:02:48;8.40;99.90
16076;DHT22;8142;48.242;11.644;2024-02-26T11:05:17;8.50;99.90
16076;DHT22;8142;48.242;11.644;2024-02-26T11:07:43;8.50;99.90
16076;DHT22;8142;48.242;11.644;2024-02-26T11:10:11;8.50;99.90
16076;DHT22;8142;48.242;11.644;2024-02-26T11:12:39;8.60;99.90
16076;DHT22;8142;48.242;11.644;2024-02-26T11:15:05;8.60;99.90
16076;DHT22;8142;48.242;11.644;2024-02-26T11:17:32;8.60;99.90
16076;DHT22;8142;48.242;11.644;2024-02-26T11:20:00;8.60;99.90
16076;DHT22;8142;48.242;11.644;2024-02-26T11:22:37;8.70;99.90
16076;DHT22;8142;48.242;11.644;2024-02-26T11:25:04;8.80;99.90
16076;DHT22;8142;48.242;11.644;2024-02-26T11:27:36;8.80;99.90
16076;DHT22;8142;48.242;11.644;2024-02-26T11:30:05;9.00;99.90
16076;DHT22;8142;48.242;11.644;2024-02-26T11:32:34;8.90;99.90
16076;DHT22;8142;48.242;11.644;2024-02-26T11:35:01;9.00;99.90
16076;DHT22;8142;48.242;11.644;2024-02-26T11:37:27;9.10;99.90
16076;DHT22;8142;48.242;11.644;2024-02-26T11:39:53;9.10;99.90
16076;DHT22;8142;48.242;11.644;2024-02-26T11:42:24;9.20;99.90
16076;DHT22;8142;48.242;11.644;2024-02-26T11:44:55;9.20;99.90
16076;DHT22;8142;48.242;11.644;2024-02-26T11:47:27;9.30;99.90
16076;DHT22;8142;48.242;11.644;2024-02-26T11:49:53;9.30;99.90
16076;DHT22;8142;48.242;11.644;2024-02-26T11:52:19;9.30;99.90
16076;DHT22;8142;48.242;11.644;2024-02-26T11:54:52;9.40;99.90
16076;DHT22;8142;48.242;11.644;2024-02-26T12:02:45;9.60;99.90
16076;DHT22;8142;48.242;11.644;2024-02-26T12:05:20;9.60;99.90
16076;DHT22;8142;48.242;11.644;2024-02-26T12:08:01;9.60;99.90
16076;DHT22;8142;48.242;11.644;2024-02-26T12:10:39;9.70;99.90
16076;DHT22;8142;48.242;11.644;2024-02-26T12:13:11;9.70;99.90
16076;DHT22;8142;48.242;11.644;2024-02-26T12:15:44;9.60;99.90
16076;DHT22;8142;48.242;11.644;2024-02-26T12:18:16;9.70;99.90
16076;DHT22;8142;48.242;11.644;2024-02-26T12:20:43;9.70;99.90
16076;DHT22;8142;48.242;11.644;2024-02-26T12:23:16;9.70;99.90
16076;DHT22;8142;48.242;11.644;2024-02-26T12:25:45;9.70;99.90
16076;DHT22;8142;48.242;11.644;2024-02-26T12:28:16;9.70;99.90
16076;DHT22;8142;48.242;11.644;2024-02-26T12:30:42;9.70;99.90
16076;DHT22;8142;48.242;11.644;2024-02-26T12:33:08;9.80;99.90
16076;DHT22;8142;48.242;11.644;2024-02-26T12:35:35;9.80;99.90
16076;DHT22;8142;48.242;11.644;2024-02-26T12:38:03;9.90;99.90
16076;DHT22;8142;48.242;11.644;2024-02-26T12:40:29;9.90;99.90
16076;DHT22;8142;48.242;11.644;2024-02-26T12:42:56;10.00;99.90
16076;DHT22;8142;48.242;11.644;2024-02-26T12:45:22;10.00;99.90
16076;DHT22;8142;48.242;11.644;2024-02-26T12:47:48;10.00;99.90
16076;DHT22;8142;48.242;11.644;2024-02-26T12:50:17;10.10;99.90
16076;DHT22;8142;48.242;11.644;2024-02-26T12:52:45;10.10;99.90
16076;DHT22;8142;48.242;11.644;2024-02-26T12:55:14;10.20;99.90
16076;DHT22;8142;48.242;11.644;2024-02-26T12:57:41;10.20;99.90
16076;DHT22;8142;48.242;11.644;2024-02-26T13:00:12;10.20;99.90
16076;DHT22;8142;48.242;11.644;2024-02-26T13:02:39;10.20;99.90
16076;DHT22;8142;48.242;11.644;2024-02-26T13:05:07;10.30;99.90
16076;DHT22;8142;48.242;11.644;2024-02-26T13:07:34;10.20;99.90
16076;DHT22;8142;48.242;11.644;2024-02-26T13:10:00;10.20;99.90
16076;DHT22;8142;48.242;11.644;2024-02-26T13:12:27;10.20;99.90
16076;DHT22;8142;48.242;11.644;2024-02-26T13:15:00;10.30;99.90
16076;DHT22;8142;48.242;11.644;2024-02-26T13:17:26;10.30;99.90
16076;DHT22;8142;48.242;11.644;2024-02-26T13:19:54;10.30;99.90
16076;DHT22;8142;48.242;11.644;2024-02-26T13:22:22;10.20;99.90
16076;DHT22;8142;48.242;11.644;2024-02-26T13:24:56;10.20;99.90
16076;DHT22;8142;48.242;11.644;2024-02-26T13:27:23;10.30;99.90
16076;DHT22;8142;48.242;11.644;2024-02-26T13:30:01;10.20;99.90
16076;DHT22;8142;48.242;11.644;2024-02-26T13:32:28;10.20;99.90
16076;DHT22;8142;48.242;11.644;2024-02-26T13:35:10;10.20;99.90
16076;DHT22;8142;48.242;11.644;2024-02-26T13:37:37;10.30;99.90
16076;DHT22;8142;48.242;11.644;2024-02-26T13:40:11;10.20;99.90
16076;DHT22;8142;48.242;11.644;2024-02-26T13:42:38;10.20;99.90
16076;DHT22;8142;48.242;11.644;2024-02-26T13:45:05;10.20;99.90
16076;DHT22;8142;48.242;11.644;2024-02-26T13:47:34;10.20;99.90
16076;DHT22;8142;48.242;11.644;2024-02-26T13:50:01;10.20;99.90
16076;DHT22;8142;48.242;11.644;2024-02-26T13:52:28;10.20;99.90
16076;DHT22;8142;48.242;11.644;2024-02-26T13:54:54;10.20;99.90
16076;DHT22;8142;48.242;11.644;2024-02-26T13:57:20;10.30;99.90
16076;DHT22;8142;48.242;11.644;2024-02-26T13:59:46;10.30;99.90
16076;DHT22;8142;48.242;11.644;2024-02-26T14:02:13;10.30;99.90
16076;DHT22;8142;48.242;11.644;2024-02-26T14:04:39;10.30;99.90
16076;DHT22;8142;48.242;11.644;2024-02-26T14:07:05;10.30;99.90
16076;DHT22;8142;48.242;11.644;2024-02-26T14:09:32;10.30;99.90
16076;DHT22;8142;48.242;11.644;2024-02-26T14:12:00;10.40;99.90
16076;DHT22;8142;48.242;11.644;2024-02-26T14:14:30;10.30;99.90
16076;DHT22;8142;48.242;11.644;2024-02-26T14:17:01;10.30;99.90
16076;DHT22;8142;48.242;11.644;2024-02-26T14:19:29;10.20;99.90
16076;DHT22;8142;48.242;11.644;2024-02-26T14:21:55;10.30;99.90
16076;DHT22;8142;48.242;11.644;2024-02-26T14:24:21;10.30;99.90
16076;DHT22;8142;48.242;11.644;2024-02-26T14:26:46;10.30;99.90
16076;DHT22;8142;48.242;11.644;2024-02-26T14:29:12;10.30;99.90
16076;DHT22;8142;48.242;11.644;2024-02-26T14:31:39;10.20;99.90
16076;DHT22;8142;48.242;11.644;2024-02-26T14:34:05;10.20;99.90
16076;DHT22;8142;48.242;11.644;2024-02-26T14:36:31;10.20;99.90
16076;DHT22;8142;48.242;11.644;2024-02-26T14:38:57;10.30;99.90
16076;DHT22;8142;48.242;11.644;2024-02-26T14:41:23;10.30;99.90
16076;DHT22;8142;48.242;11.644;2024-02-26T14:43:50;10.30;99.90
16076;DHT22;8142;48.242;11.644;2024-02-26T14:46:16;10.20;99.90
16076;DHT22;8142;48.242;11.644;2024-02-26T14:48:42;10.30;99.90
16076;DHT22;8142;48.242;11.644;2024-02-26T14:51:08;10.30;99.90
16076;DHT22;8142;48.242;11.644;2024-02-26T14:53:34;10.30;99.90
16076;DHT22;8142;48.242;11.644;2024-02-26T14:56:00;10.30;99.90
16076;DHT22;8142;48.242;11.644;2024-02-26T14:58:26;10.30;99.90
16076;DHT22;8142;48.242;11.644;2024-02-26T15:00:52;10.30;99.90
16076;DHT22;8142;48.242;11.644;2024-02-26T15:03:18;10.20;99.90
16076;DHT22;8142;48.242;11.644;2024-02-26T15:05:44;10.20;99.90
16076;DHT22;8142;48.242;11.644;2024-02-26T15:08:10;10.20;99.90
16076;DHT22;8142;48.242;11.644;2024-02-26T15:10:40;10.20;99.90
16076;DHT22;8142;48.242;11.644;2024-02-26T15:13:13;10.20;99.90
16076;DHT22;8142;48.242;11.644;2024-02-26T15:15:39;10.20;99.90
16076;DHT22;8142;48.242;11.644;2024-02-26T15:18:07;10.10;99.90
16076;DHT22;8142;48.242;11.644;2024-02-26T15:20:34;10.10;99.90
16076;DHT22;8142;48.242;11.644;2024-02-26T15:23:00;10.10;99.90
16076;DHT22;8142;48.242;11.644;2024-02-26T15:25:25;10.00;99.90
16076;DHT22;8142;48.242;11.644;2024-02-26T15:27:51;10.10;99.90
16076;DHT22;8142;48.242;11.644;2024-02-26T15:30:17;10.00;99.90
16076;DHT22;8142;48.242;11.644;2024-02-26T15:32:43;10.00;99.90
16076;DHT22;8142;48.242;11.644;2024-02-26T15:35:10;10.00;99.90
16076;DHT22;8142;48.242;11.644;2024-02-26T15:37:36;9.90;99.90
16076;DHT22;8142;48.242;11.644;2024-02-26T15:40:02;10.00;99.90
16076;DHT22;8142;48.242;11.644;2024-02-26T15:42:29;9.90;99.90
16076;DHT22;8142;48.242;11.644;2024-02-26T15:44:55;10.00;99.90